Time;durP1;ratioP1;P1;durP2;ratioP2;P2;SDS_P1;SDS_P2;PMS_P1;PMS_P2;Temp;Humidity;BMP_temperature;BMP_pressure;BME280_temperature;BME280_humidity;BME280_pressure;Samples;Min_cycle;Max_cycle;Signal;HPM_P1;HPM_P2
2022/04/18 00:00:01;;;;;;;5.45;3.03;;;;;;;;;;5047050;28;20455;-73
2022/04/18 00:02:27;;;;;;;4.07;3.25;;;;;;;;;;5047045;28;20075;-74
2022/04/18 00:04:54;;;;;;;3.47;2.28;;;;;;;;;;5050390;28;20132;-74
2022/04/18 00:07:20;;;;;;;6.03;3.35;;;;;;;;;;5045234;28;20095;-73
2022/04/18 00:09:46;;;;;;;4.60;2.50;;;;;;;;;;5048720;28;20033;-72
2022/04/18 00:12:12;;;;;;;3.03;2.60;;;;;;;;;;5044115;28;20109;-73
2022/04/18 00:14:38;;;;;;;7.10;2.35;;;;;;;;;;5050056;28;20107;-72
2022/04/18 00:17:09;;;;;;;7.95;2.70;;;;;;;;;;5049138;28;20021;-72
2022/04/18 00:19:35;;;;;;;4.60;2.72;;;;;;;;;;5047014;28;20087;-72
2022/04/18 00:22:01;;;;;;;5.18;3.10;;;;;;;;;;5045236;28;20055;-73
2022/04/18 00:24:27;;;;;;;4.60;2.40;;;;;;;;;;5046301;28;20427;-73
2022/04/18 00:26:53;;;;;;;4.28;2.60;;;;;;;;;;5046517;28;20029;-75
2022/04/18 00:29:19;;;;;;;6.03;2.83;;;;;;;;;;5057308;28;20060;-74
2022/04/18 00:31:46;;;;;;;8.13;3.45;;;;;;;;;;5056560;28;20039;-75
2022/04/18 00:34:14;;;;;;;5.20;2.67;;;;;;;;;;5053756;28;20029;-74
2022/04/18 00:36:40;;;;;;;3.05;2.50;;;;;;;;;;5057062;28;20032;-74
2022/04/18 00:39:14;;;;;;;3.83;2.47;;;;;;;;;;5061524;28;20033;-74
2022/04/18 00:41:40;;;;;;;6.78;2.45;;;;;;;;;;5034175;28;20056;-74
2022/04/18 00:44:06;;;;;;;9.52;3.03;;;;;;;;;;5056764;28;20102;-74
2022/04/18 00:46:33;;;;;;;6.60;2.60;;;;;;;;;;5058391;28;20025;-74
2022/04/18 00:48:59;;;;;;;5.88;3.08;;;;;;;;;;5057417;28;20029;-76
2022/04/18 00:51:26;;;;;;;7.38;3.13;;;;;;;;;;5050752;28;20441;-73
2022/04/18 00:53:53;;;;;;;6.03;2.45;;;;;;;;;;5049993;28;20017;-74
2022/04/18 00:56:20;;;;;;;8.82;2.92;;;;;;;;;;5056501;28;20032;-74
2022/04/18 00:58:47;;;;;;;4.65;2.28;;;;;;;;;;5057940;28;20029;-75
2022/04/18 01:01:13;;;;;;;5.57;2.90;;;;;;;;;;5053862;28;20099;-72
2022/04/18 01:03:39;;;;;;;5.40;3.03;;;;;;;;;;5057938;28;20486;-74
2022/04/18 01:06:05;;;;;;;4.07;2.53;;;;;;;;;;5057169;28;20042;-74
2022/04/18 01:08:35;;;;;;;4.80;2.60;;;;;;;;;;5053582;28;20530;-74
2022/04/18 01:11:01;;;;;;;7.25;2.80;;;;;;;;;;5048225;28;20036;-74
2022/04/18 01:13:28;;;;;;;11.07;3.13;;;;;;;;;;5054911;28;20111;-74
2022/04/18 01:15:55;;;;;;;5.65;3.63;;;;;;;;;;5055058;28;20554;-73
2022/04/18 01:18:21;;;;;;;5.32;2.90;;;;;;;;;;5053254;28;20120;-74
2022/04/18 01:20:48;;;;;;;6.38;2.25;;;;;;;;;;5054369;28;20096;-74
2022/04/18 01:23:15;;;;;;;5.70;2.38;;;;;;;;;;5053360;28;20471;-73
2022/04/18 01:31:10;;;;;;;6.22;3.13;;;;;;;;;;5054722;28;20124;-73
2022/04/18 01:33:37;;;;;;;7.72;3.40;;;;;;;;;;5049070;28;20430;-73
2022/04/18 01:36:07;;;;;;;5.72;2.80;;;;;;;;;;5056611;28;20021;-74
2022/04/18 01:38:33;;;;;;;6.00;2.42;;;;;;;;;;5056640;28;20044;-74
2022/04/18 01:40:59;;;;;;;6.97;3.03;;;;;;;;;;5054995;28;20056;-74
2022/04/18 01:43:26;;;;;;;4.35;2.90;;;;;;;;;;5050910;28;20521;-74
2022/04/18 01:45:52;;;;;;;9.35;3.10;;;;;;;;;;5050218;28;20013;-74
2022/04/18 01:48:18;;;;;;;11.32;2.80;;;;;;;;;;5060486;28;20048;-73
2022/04/18 01:50:49;;;;;;;4.65;2.42;;;;;;;;;;5044788;28;20075;-74
2022/04/18 01:53:16;;;;;;;5.03;2.53;;;;;;;;;;5039415;28;20020;-74
2022/04/18 01:55:42;;;;;;;9.15;2.67;;;;;;;;;;5054306;28;20043;-73
2022/04/18 01:58:08;;;;;;;6.30;2.70;;;;;;;;;;5054994;28;20052;-74
2022/04/18 02:00:40;;;;;;;4.97;2.42;;;;;;;;;;5057132;28;20039;-73
2022/04/18 02:03:06;;;;;;;4.18;2.70;;;;;;;;;;5051496;28;20096;-74
2022/04/18 02:05:32;;;;;;;5.82;2.45;;;;;;;;;;5054811;28;20049;-73
2022/04/18 02:07:58;;;;;;;4.43;2.53;;;;;;;;;;5053735;28;20479;-74
2022/04/18 02:10:24;;;;;;;7.07;2.88;;;;;;;;;;5053600;28;20056;-72
2022/04/18 02:12:50;;;;;;;7.38;2.75;;;;;;;;;;5054717;28;20081;-73
2022/04/18 02:15:17;;;;;;;11.68;2.67;;;;;;;;;;5052433;28;20041;-72
2022/04/18 02:17:43;;;;;;;5.72;2.40;;;;;;;;;;5053005;28;20096;-72
2022/04/18 02:20:09;;;;;;;5.72;2.67;;;;;;;;;;5056051;28;20029;-73
2022/04/18 02:22:35;;;;;;;5.72;3.15;;;;;;;;;;5058090;28;20411;-73
2022/04/18 02:25:02;;;;;;;5.78;2.45;;;;;;;;;;5059908;28;20028;-72
2022/04/18 02:27:28;;;;;;;4.80;3.42;;;;;;;;;;5046427;28;20025;-72
2022/04/18 02:29:54;;;;;;;9.48;3.33;;;;;;;;;;5063661;28;20041;-71
2022/04/18 02:35:06;;;;;;;6.97;2.70;;;;;;;;;;5058266;28;20126;-73
2022/04/18 02:37:32;;;;;;;5.32;3.05;;;;;;;;;;5055074;28;20349;-73
2022/04/18 02:39:59;;;;;;;7.35;2.70;;;;;;;;;;5056720;28;20051;-73
2022/04/18 02:42:26;;;;;;;4.55;2.33;;;;;;;;;;5058136;28;20037;-71
2022/04/18 02:44:52;;;;;;;6.28;2.50;;;;;;;;;;5055897;28;20077;-72
2022/04/18 02:47:18;;;;;;;9.88;3.33;;;;;;;;;;5056109;28;20029;-71
2022/04/18 02:49:44;;;;;;;8.88;3.03;;;;;;;;;;5039899;28;20052;-71
2022/04/18 02:52:10;;;;;;;5.78;2.40;;;;;;;;;;5056294;28;20032;-71
2022/04/18 02:54:36;;;;;;;6.13;3.40;;;;;;;;;;5052391;28;20028;-72
2022/04/18 02:57:02;;;;;;;9.85;3.47;;;;;;;;;;5053117;28;20053;-74
2022/04/18 02:59:28;;;;;;;6.53;3.65;;;;;;;;;;5060376;28;20037;-74
2022/04/18 03:01:55;;;;;;;5.57;2.67;;;;;;;;;;5053988;28;20135;-73
2022/04/18 03:04:21;;;;;;;5.15;2.80;;;;;;;;;;5058781;28;20025;-74
2022/04/18 03:06:47;;;;;;;5.50;3.22;;;;;;;;;;5058639;28;20444;-73
2022/04/18 03:09:15;;;;;;;7.85;2.78;;;;;;;;;;5038423;28;20028;-75
2022/04/18 03:11:41;;;;;;;7.50;2.95;;;;;;;;;;5053032;28;20372;-73
2022/04/18 03:14:07;;;;;;;5.88;2.85;;;;;;;;;;5058701;28;20048;-74
2022/04/18 03:16:33;;;;;;;6.20;2.78;;;;;;;;;;5053401;28;20041;-75
2022/04/18 03:18:59;;;;;;;9.65;2.90;;;;;;;;;;5054682;28;20032;-74
2022/04/18 03:21:25;;;;;;;5.53;2.47;;;;;;;;;;5053548;28;20040;-74
2022/04/18 03:23:52;;;;;;;9.90;2.83;;;;;;;;;;5059811;28;20493;-75
2022/04/18 03:26:18;;;;;;;5.53;3.63;;;;;;;;;;5037690;28;20052;-75
2022/04/18 03:28:45;;;;;;;4.20;3.13;;;;;;;;;;5054445;28;20132;-72
2022/04/18 03:31:11;;;;;;;7.32;3.30;;;;;;;;;;5053600;28;20021;-73
2022/04/18 03:33:37;;;;;;;8.80;3.25;;;;;;;;;;5053630;28;20048;-72
2022/04/18 03:41:33;;;;;;;6.43;3.15;;;;;;;;;;5051204;28;20044;-75
2022/04/18 03:43:59;;;;;;;5.50;3.05;;;;;;;;;;5053814;28;20051;-71
2022/04/18 03:46:25;;;;;;;8.85;3.25;;;;;;;;;;5053872;28;20029;-75
2022/04/18 03:48:51;;;;;;;7.00;3.35;;;;;;;;;;5034406;28;20047;-75
2022/04/18 03:51:17;;;;;;;7.43;3.47;;;;;;;;;;5050574;28;20037;-73
2022/04/18 03:53:43;;;;;;;8.98;2.88;;;;;;;;;;5051515;28;20151;-76
2022/04/18 03:56:09;;;;;;;7.05;2.85;;;;;;;;;;5051176;28;20082;-73
2022/04/18 03:58:35;;;;;;;5.10;3.13;;;;;;;;;;5056447;28;20058;-75
2022/04/18 04:01:01;;;;;;;6.55;3.67;;;;;;;;;;5053372;28;20032;-75
2022/04/18 04:03:27;;;;;;;9.60;3.25;;;;;;;;;;5054648;28;20052;-74
2022/04/18 04:05:53;;;;;;;5.43;3.00;;;;;;;;;;5054668;28;20088;-74
2022/04/18 04:08:22;;;;;;;8.85;3.30;;;;;;;;;;5051791;28;20037;-76
2022/04/18 04:10:50;;;;;;;5.13;3.13;;;;;;;;;;5057107;28;20025;-73
2022/04/18 04:13:16;;;;;;;9.57;3.17;;;;;;;;;;5048461;28;20077;-73
2022/04/18 04:15:42;;;;;;;8.05;3.55;;;;;;;;;;5053521;28;20029;-71
2022/04/18 04:18:08;;;;;;;8.27;3.03;;;;;;;;;;5034906;28;20066;-73
2022/04/18 04:20:34;;;;;;;6.43;2.55;;;;;;;;;;5037380;28;20046;-73
2022/04/18 04:23:00;;;;;;;3.47;2.47;;;;;;;;;;5033509;28;20530;-73
2022/04/18 04:25:26;;;;;;;6.78;3.58;;;;;;;;;;5031891;28;20474;-75
2022/04/18 04:27:52;;;;;;;10.13;3.10;;;;;;;;;;5027823;28;20103;-73
2022/04/18 04:30:18;;;;;;;6.13;2.92;;;;;;;;;;5048943;28;20040;-73
2022/04/18 04:32:44;;;;;;;8.07;2.78;;;;;;;;;;5051284;28;20037;-71
2022/04/18 04:35:10;;;;;;;4.05;2.63;;;;;;;;;;5049110;28;20058;-72
2022/04/18 04:37:36;;;;;;;8.18;3.33;;;;;;;;;;5054048;28;20184;-72
2022/04/18 04:40:03;;;;;;;5.30;3.25;;;;;;;;;;5057380;28;20032;-71
2022/04/18 04:42:29;;;;;;;36.22;4.70;;;;;;;;;;5053363;28;20059;-72
2022/04/18 04:44:57;;;;;;;6.53;2.90;;;;;;;;;;5055280;28;20025;-72
2022/04/18 04:47:24;;;;;;;5.38;2.88;;;;;;;;;;5056507;28;20771;-73
2022/04/18 04:49:50;;;;;;;5.95;3.15;;;;;;;;;;5059599;28;20041;-71
2022/04/18 04:52:16;;;;;;;5.90;3.10;;;;;;;;;;5056528;28;20033;-73
2022/04/18 04:54:42;;;;;;;11.50;3.40;;;;;;;;;;5048267;28;20037;-72
2022/04/18 04:57:08;;;;;;;4.63;3.40;;;;;;;;;;5036263;28;20040;-72
2022/04/18 04:59:34;;;;;;;6.93;3.25;;;;;;;;;;5055832;28;20068;-72
2022/04/18 05:02:00;;;;;;;6.53;3.15;;;;;;;;;;5056658;28;20071;-74
2022/04/18 05:04:27;;;;;;;8.88;3.53;;;;;;;;;;5056516;28;20025;-73
2022/04/18 05:06:53;;;;;;;4.60;3.05;;;;;;;;;;5056539;28;20044;-73
2022/04/18 05:09:19;;;;;;;9.18;3.60;;;;;;;;;;5057707;28;20094;-73
2022/04/18 05:11:46;;;;;;;8.25;3.95;;;;;;;;;;5057261;28;20037;-72
2022/04/18 05:14:14;;;;;;;5.95;3.28;;;;;;;;;;5034440;28;20025;-72
2022/04/18 05:16:40;;;;;;;8.52;3.58;;;;;;;;;;5055370;28;20056;-72
2022/04/18 05:19:06;;;;;;;4.47;3.13;;;;;;;;;;5056867;28;20033;-72
2022/04/18 05:21:32;;;;;;;5.90;3.45;;;;;;;;;;5058209;28;20468;-72
2022/04/18 05:23:58;;;;;;;7.93;3.00;;;;;;;;;;5039059;28;20142;-72
2022/04/18 05:26:25;;;;;;;10.63;3.20;;;;;;;;;;5050241;28;20035;-73
2022/04/18 05:28:51;;;;;;;5.10;2.83;;;;;;;;;;5035105;28;20542;-76
2022/04/18 05:31:19;;;;;;;4.55;3.10;;;;;;;;;;5057770;28;20029;-73
2022/04/18 05:33:45;;;;;;;7.03;3.72;;;;;;;;;;5056357;28;20600;-72
2022/04/18 05:36:11;;;;;;;7.25;3.20;;;;;;;;;;5057122;28;20036;-73
2022/04/18 05:38:37;;;;;;;9.07;2.70;;;;;;;;;;5055712;28;20037;-73
2022/04/18 05:41:03;;;;;;;9.85;3.17;;;;;;;;;;5052098;28;20486;-72
2022/04/18 05:43:29;;;;;;;7.55;2.83;;;;;;;;;;5050064;28;20025;-72
2022/04/18 05:45:55;;;;;;;7.05;2.90;;;;;;;;;;5022832;28;20143;-74
2022/04/18 05:48:21;;;;;;;6.00;3.20;;;;;;;;;;5030987;28;20056;-74
2022/04/18 05:50:48;;;;;;;5.32;3.28;;;;;;;;;;5031726;28;20561;-75
2022/04/18 05:53:14;;;;;;;6.55;3.30;;;;;;;;;;5039726;28;20032;-73
2022/04/18 05:55:41;;;;;;;6.38;3.00;;;;;;;;;;5035122;28;20031;-73
2022/04/18 05:58:07;;;;;;;6.13;2.90;;;;;;;;;;5049406;28;20033;-75
2022/04/18 06:00:34;;;;;;;4.47;2.92;;;;;;;;;;5050224;28;20167;-73
2022/04/18 06:03:01;;;;;;;6.18;2.95;;;;;;;;;;5051619;28;20406;-74
2022/04/18 06:05:27;;;;;;;6.55;3.85;;;;;;;;;;5052793;28;20509;-74
2022/04/18 06:07:53;;;;;;;5.50;2.78;;;;;;;;;;5053285;28;20452;-74
2022/04/18 06:10:19;;;;;;;8.23;3.40;;;;;;;;;;5032797;28;20032;-73
2022/04/18 06:12:45;;;;;;;9.77;3.47;;;;;;;;;;5052913;28;20033;-72
2022/04/18 06:15:11;;;;;;;8.55;3.53;;;;;;;;;;5052232;28;20049;-74
2022/04/18 06:17:37;;;;;;;5.78;3.28;;;;;;;;;;5054111;28;20037;-73
2022/04/18 06:20:04;;;;;;;7.93;3.50;;;;;;;;;;5056542;28;20047;-73
2022/04/18 06:22:30;;;;;;;8.77;3.22;;;;;;;;;;5054535;28;20097;-72
2022/04/18 06:24:56;;;;;;;9.15;3.95;;;;;;;;;;5046129;28;20498;-75
2022/04/18 06:27:22;;;;;;;7.57;3.15;;;;;;;;;;5048783;28;20025;-73
2022/04/18 06:29:48;;;;;;;7.07;3.17;;;;;;;;;;5051431;28;20045;-73
2022/04/18 06:32:14;;;;;;;5.25;2.95;;;;;;;;;;5054355;28;20115;-73
2022/04/18 06:34:41;;;;;;;4.50;3.33;;;;;;;;;;5053434;28;20056;-72
2022/04/18 06:37:07;;;;;;;5.22;2.88;;;;;;;;;;5033907;28;20033;-72
2022/04/18 06:39:33;;;;;;;7.40;3.33;;;;;;;;;;5048302;28;20083;-74
2022/04/18 06:42:00;;;;;;;9.10;3.50;;;;;;;;;;5052461;28;20033;-73
2022/04/18 06:44:26;;;;;;;10.18;3.25;;;;;;;;;;5048929;28;20088;-74
2022/04/18 06:46:52;;;;;;;6.38;4.28;;;;;;;;;;5049524;28;20030;-73
2022/04/18 06:49:18;;;;;;;5.50;3.10;;;;;;;;;;5051202;28;20390;-73
2022/04/18 06:51:44;;;;;;;4.20;3.20;;;;;;;;;;5049582;28;20047;-74
2022/04/18 06:54:10;;;;;;;11.60;3.30;;;;;;;;;;5047918;28;20041;-74
2022/04/18 06:59:21;;;;;;;6.28;3.22;;;;;;;;;;5048425;28;20055;-74
2022/04/18 07:01:47;;;;;;;6.20;3.40;;;;;;;;;;5049432;28;20036;-73
2022/04/18 07:04:13;;;;;;;6.15;3.03;;;;;;;;;;5050804;28;20057;-73
2022/04/18 07:06:40;;;;;;;5.60;3.58;;;;;;;;;;5045423;28;20021;-73
2022/04/18 07:09:06;;;;;;;7.53;3.45;;;;;;;;;;5044231;28;20033;-74
2022/04/18 07:11:32;;;;;;;7.22;3.15;;;;;;;;;;5047512;28;20021;-73
2022/04/18 07:13:58;;;;;;;8.10;2.92;;;;;;;;;;5051459;28;20033;-73
2022/04/18 07:16:25;;;;;;;8.73;3.10;;;;;;;;;;5046571;28;20105;-73
2022/04/18 07:18:51;;;;;;;6.38;3.38;;;;;;;;;;5046185;28;20625;-73
2022/04/18 07:21:37;;;;;;;6.07;3.45;;;;;;;;;;5044921;28;20025;-73
2022/04/18 07:24:05;;;;;;;5.05;3.10;;;;;;;;;;5046762;28;20090;-73
2022/04/18 07:26:32;;;;;;;8.18;3.55;;;;;;;;;;5044719;28;20021;-74
2022/04/18 07:28:58;;;;;;;4.43;2.75;;;;;;;;;;5028893;28;20396;-73
2022/04/18 07:31:27;;;;;;;7.80;3.47;;;;;;;;;;5044430;28;20039;-72
2022/04/18 07:33:53;;;;;;;8.63;3.40;;;;;;;;;;5046138;28;20029;-74
2022/04/18 07:36:19;;;;;;;9.10;3.35;;;;;;;;;;5032763;28;20025;-73
2022/04/18 07:38:51;;;;;;;8.15;2.85;;;;;;;;;;5044209;28;20029;-75
2022/04/18 07:41:21;;;;;;;7.07;3.25;;;;;;;;;;5045774;28;20968;-74
2022/04/18 07:43:48;;;;;;;6.10;3.13;;;;;;;;;;5027326;28;20026;-73
2022/04/18 07:46:17;;;;;;;4.38;2.63;;;;;;;;;;5046047;28;20603;-74
2022/04/18 07:48:47;;;;;;;5.72;3.22;;;;;;;;;;5043809;28;20483;-74
2022/04/18 07:51:32;;;;;;;4.38;3.00;;;;;;;;;;5046004;28;20092;-72
2022/04/18 07:53:58;;;;;;;5.22;3.03;;;;;;;;;;5026530;28;20082;-73
2022/04/18 07:56:25;;;;;;;4.95;2.60;;;;;;;;;;5046010;28;20072;-74
2022/04/18 07:58:52;;;;;;;3.20;2.55;;;;;;;;;;5043695;28;20033;-74
2022/04/18 08:01:19;;;;;;;6.22;3.45;;;;;;;;;;5043354;28;20032;-71
2022/04/18 08:03:45;;;;;;;6.35;3.70;;;;;;;;;;5044862;28;20099;-73
2022/04/18 08:06:12;;;;;;;5.93;2.58;;;;;;;;;;5044816;28;20032;-74
2022/04/18 08:08:38;;;;;;;8.38;3.58;;;;;;;;;;5043972;28;20044;-74
2022/04/18 08:11:04;;;;;;;5.72;2.75;;;;;;;;;;5046153;28;20052;-72
2022/04/18 08:13:31;;;;;;;4.65;2.45;;;;;;;;;;5047305;28;20578;-73
2022/04/18 08:16:01;;;;;;;6.55;3.33;;;;;;;;;;5049152;28;20031;-72
2022/04/18 08:18:27;;;;;;;4.88;2.90;;;;;;;;;;5048659;28;20027;-72
2022/04/18 08:20:53;;;;;;;7.25;2.72;;;;;;;;;;5046761;28;20316;-73
2022/04/18 08:23:19;;;;;;;6.43;4.00;;;;;;;;;;5048140;28;20369;-73
2022/04/18 08:25:46;;;;;;;6.45;2.92;;;;;;;;;;5045012;28;20536;-73
2022/04/18 08:28:12;;;;;;;5.68;3.30;;;;;;;;;;5047080;28;20032;-72
2022/04/18 08:30:38;;;;;;;8.52;2.90;;;;;;;;;;5048987;28;20021;-73
2022/04/18 08:33:04;;;;;;;8.45;3.30;;;;;;;;;;5048223;28;20552;-73
2022/04/18 08:35:32;;;;;;;5.40;2.47;;;;;;;;;;5048178;28;20136;-74
2022/04/18 08:37:59;;;;;;;6.93;2.58;;;;;;;;;;5048210;28;20372;-72
2022/04/18 08:40:25;;;;;;;7.38;2.83;;;;;;;;;;5043211;28;20044;-73
2022/04/18 08:42:57;;;;;;;6.05;2.42;;;;;;;;;;5044615;28;20028;-74
2022/04/18 08:45:24;;;;;;;3.75;2.40;;;;;;;;;;5046821;28;20402;-73
2022/04/18 08:53:24;;;;;;;4.97;2.10;;;;;;;;;;5042738;28;20105;-73
2022/04/18 08:55:50;;;;;;;4.18;2.45;;;;;;;;;;5044156;28;20131;-73
2022/04/18 08:58:17;;;;;;;8.48;2.65;;;;;;;;;;5045895;28;20112;-73
2022/04/18 09:00:43;;;;;;;6.68;2.38;;;;;;;;;;5045195;28;20033;-73
2022/04/18 09:03:09;;;;;;;4.28;2.75;;;;;;;;;;5044458;28;20954;-72
2022/04/18 09:05:36;;;;;;;3.92;2.33;;;;;;;;;;5043002;28;20139;-73
2022/04/18 09:08:04;;;;;;;5.10;2.90;;;;;;;;;;5022134;28;20053;-74
2022/04/18 09:10:30;;;;;;;7.03;2.35;;;;;;;;;;5044766;28;20055;-73
2022/04/18 09:13:04;;;;;;;4.35;2.95;;;;;;;;;;5041751;28;20029;-73
2022/04/18 09:15:40;;;;;;;6.10;2.40;;;;;;;;;;5042629;28;20364;-74
2022/04/18 09:18:11;;;;;;;6.32;2.85;;;;;;;;;;5042298;28;20036;-73
2022/04/18 09:20:45;;;;;;;8.07;2.60;;;;;;;;;;5021908;28;20033;-73
2022/04/18 09:23:22;;;;;;;6.85;2.50;;;;;;;;;;5044246;28;20028;-73
2022/04/18 09:25:51;;;;;;;4.95;2.30;;;;;;;;;;5037521;28;20053;-73
2022/04/18 09:28:17;;;;;;;6.00;2.78;;;;;;;;;;5040785;28;20372;-73
2022/04/18 09:30:43;;;;;;;6.50;2.55;;;;;;;;;;5043346;28;20040;-74
2022/04/18 09:33:10;;;;;;;8.88;3.17;;;;;;;;;;5046773;28;20036;-74
2022/04/18 09:35:36;;;;;;;3.58;1.88;;;;;;;;;;5044170;28;20035;-74
2022/04/18 09:38:09;;;;;;;4.30;2.60;;;;;;;;;;5046363;28;20051;-74
2022/04/18 09:40:38;;;;;;;3.40;2.22;;;;;;;;;;5043321;28;20532;-74
2022/04/18 09:43:04;;;;;;;4.50;2.22;;;;;;;;;;5043396;28;20037;-74
2022/04/18 09:45:30;;;;;;;6.57;3.17;;;;;;;;;;5028930;28;20090;-74
2022/04/18 09:47:58;;;;;;;5.03;2.03;;;;;;;;;;5046491;28;20063;-74
2022/04/18 09:53:17;;;;;;;5.75;2.20;;;;;;;;;;5042285;28;20675;-74
2022/04/18 09:56:01;;;;;;;3.47;2.22;;;;;;;;;;5044228;28;20512;-74
2022/04/18 09:58:27;;;;;;;6.25;2.35;;;;;;;;;;5045435;28;20025;-75
2022/04/18 10:00:53;;;;;;;3.40;2.13;;;;;;;;;;5046278;28;20043;-75
2022/04/18 10:03:20;;;;;;;7.18;3.13;;;;;;;;;;5045586;28;20028;-75
2022/04/18 10:05:48;;;;;;;6.05;2.58;;;;;;;;;;5039690;28;20434;-74
2022/04/18 10:08:15;;;;;;;3.60;2.60;;;;;;;;;;5043280;28;20064;-74
2022/04/18 10:10:41;;;;;;;3.83;2.30;;;;;;;;;;5042738;28;20033;-75
2022/04/18 10:13:10;;;;;;;3.33;2.13;;;;;;;;;;5042342;28;20040;-74
2022/04/18 10:15:37;;;;;;;6.70;2.63;;;;;;;;;;5042265;28;20037;-74
2022/04/18 10:18:04;;;;;;;4.75;2.97;;;;;;;;;;5041512;28;20531;-75
2022/04/18 10:20:33;;;;;;;8.23;2.53;;;;;;;;;;5043249;28;20063;-74
2022/04/18 10:23:18;;;;;;;4.65;2.65;;;;;;;;;;5044250;28;20035;-75
2022/04/18 10:25:50;;;;;;;6.10;3.08;;;;;;;;;;5043270;28;20033;-73
2022/04/18 10:28:17;;;;;;;4.35;3.00;;;;;;;;;;5045216;28;20382;-72
2022/04/18 10:30:58;;;;;;;7.68;2.80;;;;;;;;;;5042637;28;20033;-74
2022/04/18 10:33:25;;;;;;;9.15;2.53;;;;;;;;;;5042417;28;20055;-74
2022/04/18 10:35:55;;;;;;;4.82;2.15;;;;;;;;;;5041057;28;20298;-75
2022/04/18 10:38:31;;;;;;;5.78;2.40;;;;;;;;;;5041020;28;20372;-74
2022/04/18 10:41:16;;;;;;;4.97;2.20;;;;;;;;;;5043080;28;20040;-74
2022/04/18 10:43:54;;;;;;;4.72;2.15;;;;;;;;;;5042534;28;20029;-73
2022/04/18 10:46:21;;;;;;;5.28;1.90;;;;;;;;;;5039724;28;20029;-75
2022/04/18 10:48:56;;;;;;;3.17;1.90;;;;;;;;;;5039573;28;20029;-73
2022/04/18 10:51:29;;;;;;;4.97;2.13;;;;;;;;;;5042094;28;20416;-73
2022/04/18 10:54:13;;;;;;;3.65;2.08;;;;;;;;;;5040138;28;20039;-73
2022/04/18 10:56:46;;;;;;;5.20;2.15;;;;;;;;;;5042474;28;20167;-72
2022/04/18 10:59:14;;;;;;;3.08;2.22;;;;;;;;;;5040094;28;20082;-73
2022/04/18 11:01:40;;;;;;;5.35;2.53;;;;;;;;;;5041225;28;20029;-73
2022/04/18 11:04:13;;;;;;;5.55;1.95;;;;;;;;;;5026346;28;20619;-73
2022/04/18 11:06:40;;;;;;;5.03;2.50;;;;;;;;;;5041947;28;20037;-73
2022/04/18 11:09:07;;;;;;;3.53;2.00;;;;;;;;;;5037963;28;20041;-72
2022/04/18 11:11:37;;;;;;;3.30;2.33;;;;;;;;;;5039932;28;20491;-73
2022/04/18 11:14:22;;;;;;;5.65;2.95;;;;;;;;;;5041565;28;20037;-72
2022/04/18 11:16:52;;;;;;;4.90;2.15;;;;;;;;;;5042392;28;20035;-71
2022/04/18 11:19:20;;;;;;;4.20;2.05;;;;;;;;;;5039622;28;20029;-72
2022/04/18 11:21:59;;;;;;;5.35;2.00;;;;;;;;;;5042724;28;20025;-73
2022/04/18 11:24:42;;;;;;;4.55;2.88;;;;;;;;;;5039315;28;20098;-74
2022/04/18 11:27:08;;;;;;;3.85;2.17;;;;;;;;;;5040033;28;20025;-73
2022/04/18 11:29:34;;;;;;;3.95;1.80;;;;;;;;;;5042147;28;20689;-71
2022/04/18 11:32:00;;;;;;;3.70;2.47;;;;;;;;;;5040566;28;20078;-73
2022/04/18 11:34:28;;;;;;;3.88;2.92;;;;;;;;;;5042013;28;20050;-73
2022/04/18 11:36:55;;;;;;;4.50;2.03;;;;;;;;;;5039222;28;20033;-75
2022/04/18 11:39:21;;;;;;;2.60;2.00;;;;;;;;;;5037744;28;20458;-72
2022/04/18 11:41:47;;;;;;;4.60;1.92;;;;;;;;;;5024416;28;20025;-72
2022/04/18 11:44:19;;;;;;;4.85;2.05;;;;;;;;;;5040961;28;20029;-74
2022/04/18 11:46:45;;;;;;;4.30;2.08;;;;;;;;;;5039280;28;20075;-73
2022/04/18 11:49:12;;;;;;;5.53;2.00;;;;;;;;;;5039520;28;20034;-73
2022/04/18 11:51:41;;;;;;;4.63;2.40;;;;;;;;;;5039303;28;20106;-73
2022/04/18 11:54:07;;;;;;;5.28;2.53;;;;;;;;;;5039638;28;20028;-73
2022/04/18 11:56:33;;;;;;;6.30;2.60;;;;;;;;;;5039205;28;20033;-73
2022/04/18 11:59:06;;;;;;;3.25;2.50;;;;;;;;;;5038736;28;20029;-73
2022/04/18 12:07:01;;;;;;;2.53;2.00;;;;;;;;;;5037191;28;20036;-72
2022/04/18 12:09:27;;;;;;;6.00;2.92;;;;;;;;;;5039187;28;20669;-71
2022/04/18 12:11:54;;;;;;;5.53;3.67;;;;;;;;;;5039478;28;20033;-73
2022/04/18 12:14:29;;;;;;;3.65;2.45;;;;;;;;;;5107083;27;20486;-74
2022/04/18 12:17:00;;;;;;;4.78;2.30;;;;;;;;;;5085847;28;20365;-72
2022/04/18 12:19:28;;;;;;;5.60;2.80;;;;;;;;;;5093406;28;20049;-73
2022/04/18 12:21:55;;;;;;;5.05;2.15;;;;;;;;;;5087999;28;20024;-73
2022/04/18 12:24:21;;;;;;;4.97;2.85;;;;;;;;;;5079327;28;20560;-74
2022/04/18 12:26:51;;;;;;;3.25;2.08;;;;;;;;;;5086294;28;20063;-74
2022/04/18 12:29:19;;;;;;;5.20;3.15;;;;;;;;;;5083387;28;20063;-74
2022/04/18 12:31:45;;;;;;;4.70;2.10;;;;;;;;;;5082463;28;20577;-75
2022/04/18 12:34:18;;;;;;;3.78;1.70;;;;;;;;;;5081414;28;20024;-74
2022/04/18 12:36:44;;;;;;;2.42;2.00;;;;;;;;;;5082941;28;20024;-75
2022/04/18 12:39:19;;;;;;;3.30;1.90;;;;;;;;;;5078385;28;20031;-75
2022/04/18 12:41:45;;;;;;;1.83;1.70;;;;;;;;;;5069160;28;20027;-75
2022/04/18 12:44:15;;;;;;;3.50;2.00;;;;;;;;;;5081055;28;20103;-74
2022/04/18 12:46:42;;;;;;;3.75;1.70;;;;;;;;;;5079891;28;20475;-75
2022/04/18 12:49:11;;;;;;;6.70;2.05;;;;;;;;;;5081502;28;20036;-74
2022/04/18 12:51:40;;;;;;;2.97;1.75;;;;;;;;;;5076586;28;20479;-73
2022/04/18 12:54:18;;;;;;;2.45;1.85;;;;;;;;;;5081979;28;20311;-73
2022/04/18 12:56:47;;;;;;;4.22;1.73;;;;;;;;;;5082743;28;20031;-71
2022/04/18 12:59:16;;;;;;;2.55;1.88;;;;;;;;;;5077082;28;20032;-72
2022/04/18 13:01:44;;;;;;;3.05;1.52;;;;;;;;;;5079253;28;20600;-71
2022/04/18 13:04:21;;;;;;;1.75;1.65;;;;;;;;;;5083309;28;20028;-72
2022/04/18 13:06:56;;;;;;;3.10;1.70;;;;;;;;;;5079430;28;20123;-73
2022/04/18 13:09:22;;;;;;;;;;;;;;;;;;5082619;28;20020;-72
2022/04/18 13:11:49;;;;;;;2.80;2.17;;;;;;;;;;5089910;28;19916;-73
2022/04/18 13:14:15;;;;;;;2.45;1.90;;;;;;;;;;5079756;28;20052;-73
2022/04/18 13:16:45;;;;;;;4.70;1.80;;;;;;;;;;5077014;28;20028;-73
2022/04/18 13:19:12;;;;;;;2.50;1.90;;;;;;;;;;5083433;28;20029;-72
2022/04/18 13:21:39;;;;;;;3.28;1.90;;;;;;;;;;5085001;28;20020;-72
2022/04/18 13:24:06;;;;;;;2.45;1.98;;;;;;;;;;5082787;28;20077;-72
2022/04/18 13:26:33;;;;;;;4.43;2.17;;;;;;;;;;5071993;28;20036;-71
2022/04/18 13:29:00;;;;;;;4.57;2.00;;;;;;;;;;5070004;28;20417;-72
2022/04/18 13:31:27;;;;;;;2.35;1.75;;;;;;;;;;5070747;28;20032;-72
2022/04/18 13:33:53;;;;;;;3.95;1.92;;;;;;;;;;5070327;28;20038;-71
2022/04/18 13:36:38;;;;;;;3.80;2.00;;;;;;;;;;5069002;28;20044;-72
2022/04/18 13:39:05;;;;;;;2.30;1.65;;;;;;;;;;5070282;28;20028;-71
2022/04/18 13:41:32;;;;;;;2.38;1.60;;;;;;;;;;5065883;28;20066;-72
2022/04/18 13:43:58;;;;;;;3.53;1.70;;;;;;;;;;5072502;28;20020;-71
2022/04/18 13:46:24;;;;;;;4.00;2.55;;;;;;;;;;5071523;28;20107;-72
2022/04/18 13:48:50;;;;;;;2.00;1.80;;;;;;;;;;5072286;28;20024;-71
2022/04/18 13:51:21;;;;;;;1.92;1.63;;;;;;;;;;5070814;28;20063;-72
2022/04/18 13:53:48;;;;;;;4.85;2.60;;;;;;;;;;5067424;28;20028;-72
2022/04/18 13:56:14;;;;;;;2.58;2.33;;;;;;;;;;5075131;28;20024;-73
2022/04/18 13:58:41;;;;;;;3.95;2.25;;;;;;;;;;5069306;28;20018;-72
2022/04/18 14:01:07;;;;;;;2.13;1.75;;;;;;;;;;5067308;28;20246;-72
2022/04/18 14:03:34;;;;;;;2.80;1.70;;;;;;;;;;5063020;28;20028;-72
2022/04/18 14:06:04;;;;;;;2.15;1.92;;;;;;;;;;5063725;28;20374;-71
2022/04/18 14:08:32;;;;;;;3.80;2.40;;;;;;;;;;5072721;28;20437;-71
2022/04/18 14:10:58;;;;;;;3.78;2.20;;;;;;;;;;5068574;28;20024;-71
2022/04/18 14:13:24;;;;;;;2.53;2.33;;;;;;;;;;5071062;28;20040;-72
2022/04/18 14:21:28;;;;;;;2.38;1.70;;;;;;;;;;5044020;28;20038;-72
2022/04/18 14:23:54;;;;;;;2.60;2.10;;;;;;;;;;5069263;28;20044;-72
2022/04/18 14:26:20;;;;;;;2.55;2.15;;;;;;;;;;5065450;28;20038;-71
2022/04/18 14:28:47;;;;;;;2.75;1.70;;;;;;;;;;5069471;28;20058;-71
2022/04/18 14:31:13;;;;;;;3.83;2.03;;;;;;;;;;5073142;28;20025;-72
2022/04/18 14:33:39;;;;;;;2.60;2.10;;;;;;;;;;5065649;28;20035;-71
2022/04/18 14:36:08;;;;;;;3.55;2.63;;;;;;;;;;5072472;28;20112;-72
2022/04/18 14:38:35;;;;;;;2.47;2.22;;;;;;;;;;5064355;28;21814;-70
2022/04/18 14:41:01;;;;;;;3.85;2.58;;;;;;;;;;5073092;28;20054;-70
2022/04/18 14:43:28;;;;;;;4.65;3.45;;;;;;;;;;5073716;28;20039;-71
2022/04/18 14:45:54;;;;;;;4.55;2.97;;;;;;;;;;5074485;28;20384;-72
2022/04/18 14:48:20;;;;;;;3.33;3.00;;;;;;;;;;5070519;28;21037;-71
2022/04/18 14:50:47;;;;;;;3.03;2.58;;;;;;;;;;5070834;28;20027;-72
2022/04/18 14:53:14;;;;;;;4.97;2.63;;;;;;;;;;5070541;28;20228;-72
2022/04/18 14:55:40;;;;;;;5.10;2.20;;;;;;;;;;5070682;28;20373;-71
2022/04/18 14:58:07;;;;;;;13.52;4.75;;;;;;;;;;5069695;28;20587;-72
2022/04/18 15:00:33;;;;;;;2.28;1.83;;;;;;;;;;5073048;28;20033;-72
2022/04/18 15:03:00;;;;;;;2.30;1.73;;;;;;;;;;5068292;28;20115;-71
2022/04/18 15:05:26;;;;;;;11.40;4.07;;;;;;;;;;5073265;28;20020;-72
2022/04/18 15:07:53;;;;;;;1.88;1.70;;;;;;;;;;5073952;28;20114;-72
2022/04/18 15:10:19;;;;;;;3.40;1.77;;;;;;;;;;5069333;28;20032;-72
2022/04/18 15:12:45;;;;;;;2.92;2.05;;;;;;;;;;5067876;28;20040;-72
2022/04/18 15:15:12;;;;;;;4.45;2.33;;;;;;;;;;5072926;28;20548;-71
2022/04/18 15:17:38;;;;;;;3.92;1.95;;;;;;;;;;5073373;28;20028;-72
2022/04/18 15:20:05;;;;;;;2.53;1.75;;;;;;;;;;5069988;28;20092;-72